createdAt,value
2023-04-05T03:48:29.407Z,422.17
2023-04-05T03:50:56.253Z,422.95
2023-04-05T03:53:23.402Z,417.58
2023-04-05T03:55:50.390Z,414.77
2023-04-05T03:58:17.647Z,409.77
2023-04-05T04:00:44.392Z,418.00
2023-04-05T04:03:11.334Z,415.55
2023-04-05T04:05:39.360Z,414.67
2023-04-05T04:08:06.443Z,416.40
2023-04-05T04:10:34.481Z,418.30
2023-04-05T04:13:01.130Z,415.30
2023-04-05T04:15:27.979Z,418.38
2023-04-05T04:17:54.699Z,410.60
2023-04-05T04:20:21.377Z,408.23
2023-04-05T04:22:48.934Z,403.90
2023-04-05T04:25:18.605Z,416.88
2023-04-05T04:27:46.637Z,413.20
2023-04-05T04:30:14.834Z,414.27
2023-04-05T04:32:52.740Z,411.80
2023-04-05T04:35:24.609Z,412.38
2023-04-05T04:37:54.723Z,407.60
2023-04-05T04:40:22.805Z,416.30
2023-04-05T04:42:49.568Z,408.88
2023-04-05T04:45:17.699Z,405.50
2023-04-05T04:47:49.123Z,410.25
2023-04-05T04:50:16.583Z,409.47
2023-04-05T04:52:43.261Z,402.85
2023-04-05T04:55:10.354Z,408.23
2023-04-05T04:57:37.015Z,408.60
2023-04-05T05:00:11.936Z,411.92
2023-04-05T05:02:38.640Z,407.10
2023-04-05T05:05:07.031Z,408.58
2023-04-05T05:07:34.218Z,406.88
2023-04-05T05:10:01.607Z,414.75
2023-04-05T05:12:28.276Z,415.67
2023-04-05T05:14:54.895Z,422.98
2023-04-05T05:17:21.698Z,418.08
2023-04-05T05:19:48.392Z,417.27
2023-04-05T05:22:15.411Z,412.42
2023-04-05T05:24:42.540Z,425.20
2023-04-05T05:27:09.161Z,397.13
2023-04-05T05:29:35.777Z,402.33
2023-04-05T05:32:02.446Z,400.95
2023-04-05T05:34:29.076Z,408.13
2023-04-05T05:36:55.868Z,398.58
2023-04-05T05:39:23.562Z,402.63
2023-04-05T05:41:50.233Z,403.63
2023-04-05T05:44:16.908Z,415.87
2023-04-05T05:46:43.621Z,415.90
2023-04-05T05:49:10.327Z,417.03
2023-04-05T05:51:36.979Z,425.52
2023-04-05T05:54:04.066Z,427.58
2023-04-05T05:56:31.179Z,419.98
2023-04-05T05:58:59.461Z,421.45
2023-04-05T06:01:27.960Z,428.77
2023-04-05T06:03:56.999Z,432.80
2023-04-05T06:06:23.763Z,444.90
2023-04-05T06:08:51.261Z,452.63
2023-04-05T06:11:19.448Z,453.77
2023-04-05T06:13:46.220Z,468.02
2023-04-05T06:16:13.023Z,467.60
2023-04-05T06:18:39.735Z,471.30
2023-04-05T06:21:06.563Z,464.58
2023-04-05T06:23:33.794Z,477.08
2023-04-05T06:26:00.774Z,492.10
2023-04-05T06:28:27.694Z,499.67
2023-04-05T06:30:55.940Z,505.60
2023-04-05T06:33:22.589Z,498.37
2023-04-05T06:35:49.221Z,520.47
2023-04-05T06:38:16.099Z,524.80
2023-04-05T06:40:42.842Z,536.42
2023-04-05T06:43:10.913Z,534.90
2023-04-05T06:45:37.678Z,538.95
2023-04-05T06:48:04.662Z,538.85
2023-04-05T06:50:31.604Z,544.72
2023-04-05T06:52:58.220Z,547.13
2023-04-05T06:55:24.827Z,559.97
2023-04-05T06:57:51.575Z,570.20
2023-04-05T07:00:18.607Z,569.75
2023-04-05T07:02:45.340Z,570.50
2023-04-05T07:05:12.664Z,580.97
2023-04-05T07:07:41.329Z,574.78
2023-04-05T07:10:08.658Z,575.95
2023-04-05T07:12:35.448Z,586.92
2023-04-05T07:15:02.371Z,586.72
2023-04-05T07:17:29.142Z,584.15
2023-04-05T07:19:56.218Z,591.83
2023-04-05T07:22:22.809Z,587.95
2023-04-05T07:24:49.441Z,600.15
2023-04-05T07:27:16.277Z,618.42
2023-04-05T07:29:43.951Z,600.60
2023-04-05T07:32:11.658Z,610.55
2023-04-05T07:34:38.412Z,625.60
2023-04-05T07:37:06.271Z,628.85
2023-04-05T07:39:33.734Z,631.08
2023-04-05T07:42:00.469Z,631.63
2023-04-05T07:44:27.064Z,640.38
2023-04-05T07:46:53.758Z,648.75
2023-04-05T07:49:25.388Z,650.55
2023-04-05T07:51:55.705Z,660.72
2023-04-05T07:54:22.585Z,655.87
2023-04-05T07:56:50.026Z,655.72
2023-04-05T07:59:16.898Z,665.35
2023-04-05T08:01:43.608Z,674.33
2023-04-05T08:04:10.383Z,669.13
2023-04-05T08:06:37.154Z,681.25
2023-04-05T08:09:05.741Z,677.73
2023-04-05T08:11:33.118Z,684.60
2023-04-05T08:14:00.118Z,681.63
2023-04-05T08:16:27.170Z,693.75
2023-04-05T08:18:53.888Z,715.40
2023-04-05T08:21:20.735Z,743.00
2023-04-05T08:23:47.553Z,752.90
2023-04-05T08:26:14.440Z,779.53
2023-04-05T08:28:41.132Z,800.42
2023-04-05T08:31:08.096Z,814.83
2023-04-05T08:33:34.868Z,837.70
2023-04-05T08:36:09.090Z,863.22
2023-04-05T08:38:35.918Z,884.83
2023-04-05T08:41:18.485Z,903.17
2023-04-05T08:43:57.858Z,909.80
2023-04-05T08:46:24.981Z,924.97
2023-04-05T08:48:52.461Z,934.75
2023-04-05T08:51:21.114Z,938.55
2023-04-05T08:53:48.637Z,929.25
2023-04-05T08:56:26.016Z,947.35
2023-04-05T08:59:04.439Z,966.67
2023-04-05T09:01:33.017Z,985.13
2023-04-05T09:04:11.687Z,996.70
2023-04-05T09:06:38.786Z,997.50
2023-04-05T09:09:09.024Z,995.90
2023-04-05T09:11:36.141Z,998.58
2023-04-05T09:14:04.925Z,999.90
2023-04-05T09:16:36.681Z,999.90
2023-04-05T09:19:03.369Z,999.90
2023-04-05T09:21:30.006Z,999.90
2023-04-05T09:23:56.965Z,999.90
2023-04-05T09:26:25.340Z,999.90
2023-04-05T09:28:52.730Z,999.90
2023-04-05T09:31:36.833Z,999.90
2023-04-05T09:34:04.929Z,999.90
2023-04-05T09:36:35.060Z,999.90
2023-04-05T09:39:08.662Z,999.90
2023-04-05T09:41:36.505Z,999.90
2023-04-05T09:44:03.326Z,999.90
2023-04-05T09:46:39.600Z,999.90
2023-04-05T09:49:09.208Z,999.90
2023-04-05T09:51:37.969Z,999.90
2023-04-05T09:54:07.689Z,999.90
2023-04-05T09:56:36.699Z,999.90
2023-04-05T09:59:06.820Z,999.90
2023-04-05T10:01:34.345Z,999.90
2023-04-05T10:04:01.468Z,999.90
2023-04-05T10:06:39.732Z,999.90
2023-04-05T10:09:08.079Z,999.90
2023-04-05T10:11:36.257Z,999.90
2023-04-05T10:14:05.588Z,999.90
2023-04-05T10:16:52.816Z,999.90
2023-04-05T10:19:42.276Z,999.90
2023-04-05T10:22:15.067Z,999.90
2023-04-05T10:24:50.236Z,999.90
2023-04-05T10:27:46.925Z,999.90
2023-04-05T10:30:14.679Z,999.90
2023-04-05T10:33:09.131Z,999.90
2023-04-05T10:36:06.780Z,999.90
2023-04-05T10:38:49.307Z,999.90
2023-04-05T10:41:16.438Z,999.90
2023-04-05T10:43:46.044Z,999.90
2023-04-05T10:46:23.220Z,999.90
2023-04-05T10:48:56.765Z,999.90
2023-04-05T10:51:26.786Z,999.90
2023-04-05T10:53:56.257Z,999.90
2023-04-05T10:56:23.748Z,999.90
2023-04-05T10:58:51.518Z,999.90
2023-04-05T11:01:20.642Z,999.90
2023-04-05T11:03:48.182Z,999.90
2023-04-05T11:06:30.959Z,999.90
2023-04-05T11:09:18.086Z,999.90
2023-04-05T11:11:46.773Z,999.90
2023-04-05T11:14:25.818Z,999.90
2023-04-05T11:16:56.597Z,999.90
2023-04-05T11:19:49.876Z,999.90
2023-04-05T11:22:27.401Z,999.90
2023-04-05T11:24:58.449Z,999.90
2023-04-05T11:27:33.847Z,999.90
2023-04-05T11:30:01.705Z,999.90
2023-04-05T11:32:43.585Z,999.90
2023-04-05T11:35:22.859Z,999.90
2023-04-05T11:38:02.127Z,999.90
2023-04-05T11:40:33.376Z,999.90
2023-04-05T11:43:10.419Z,999.90
2023-04-05T11:45:43.973Z,999.90
2023-04-05T11:48:13.113Z,999.90
2023-04-05T11:50:45.374Z,999.90
2023-04-05T11:53:16.231Z,999.90
2023-04-05T11:55:47.594Z,999.90
2023-04-05T11:58:23.208Z,999.90
2023-04-05T12:01:04.005Z,999.90
2023-04-05T12:03:31.458Z,999.90
2023-04-05T12:05:59.764Z,999.90
2023-04-05T12:08:42.831Z,999.90
2023-04-05T12:11:12.353Z,999.90
2023-04-05T12:13:39.696Z,999.90
2023-04-05T12:16:08.225Z,999.90
2023-04-05T12:18:36.815Z,999.90
2023-04-05T12:21:09.218Z,999.90
2023-04-05T12:23:37.228Z,999.90
2023-04-05T12:26:06.389Z,999.90
2023-04-05T12:28:56.019Z,999.90
2023-04-05T12:31:41.990Z,999.90
2023-04-05T12:34:09.995Z,999.47
2023-04-05T12:36:38.712Z,999.65
2023-04-05T12:39:10.072Z,996.47
2023-04-05T12:41:37.510Z,999.63
2023-04-05T12:44:17.083Z,990.15
2023-04-05T12:46:44.777Z,994.45
2023-04-05T12:49:13.067Z,995.00
2023-04-05T12:51:43.971Z,990.38
2023-04-05T12:54:24.010Z,972.43
2023-04-05T12:56:52.840Z,975.20
2023-04-05T12:59:19.685Z,980.80
2023-04-05T13:01:46.641Z,989.42
2023-04-05T13:04:16.713Z,992.60
2023-04-05T13:06:47.048Z,993.50
2023-04-05T13:09:13.944Z,980.08
2023-04-05T13:11:40.712Z,960.80
2023-04-05T13:14:07.628Z,956.80
2023-04-05T13:16:34.395Z,958.38
2023-04-05T13:19:01.223Z,942.17
2023-04-05T13:21:27.838Z,932.97
2023-04-05T13:23:54.492Z,936.90
2023-04-05T13:26:21.883Z,933.95
2023-04-05T13:28:48.574Z,934.25
2023-04-05T13:31:15.978Z,922.97
2023-04-05T13:33:43.445Z,925.45
2023-04-05T13:36:12.286Z,921.10
2023-04-05T13:38:39.257Z,923.83
2023-04-05T13:41:06.070Z,917.97
2023-04-05T13:43:32.710Z,904.17
2023-04-05T13:45:59.377Z,903.90
2023-04-05T13:48:26.135Z,897.53
2023-04-05T13:50:52.803Z,903.00
2023-04-05T13:53:19.445Z,901.37
2023-04-05T13:55:46.097Z,904.53
2023-04-05T13:58:14.168Z,910.00
2023-04-05T14:00:41.461Z,909.20
2023-04-05T14:03:08.447Z,907.22
2023-04-05T14:05:35.438Z,904.53
2023-04-05T14:08:02.145Z,914.58
2023-04-05T14:10:28.789Z,921.63
2023-04-05T14:12:55.502Z,922.92
2023-04-05T14:15:22.200Z,928.50
2023-04-05T14:17:48.904Z,921.10
2023-04-05T14:20:15.785Z,926.83
2023-04-05T14:22:42.422Z,928.47
2023-04-05T14:25:09.585Z,932.63
2023-04-05T14:27:41.277Z,940.92
2023-04-05T14:30:09.236Z,933.08
2023-04-05T14:32:35.933Z,932.47
2023-04-05T14:35:02.573Z,940.10
2023-04-05T14:37:29.252Z,969.00
2023-04-05T14:39:55.920Z,963.17
2023-04-05T14:42:23.805Z,963.63
2023-04-05T14:44:52.571Z,936.80
2023-04-05T14:47:19.423Z,930.80
2023-04-05T14:49:46.187Z,920.30
2023-04-05T14:52:13.093Z,914.97
2023-04-05T14:54:39.792Z,908.70
2023-04-05T14:57:06.470Z,905.70
2023-04-05T14:59:33.227Z,914.15
2023-04-05T15:01:59.964Z,903.92
2023-04-05T15:04:27.897Z,911.60
2023-04-05T15:06:54.677Z,906.60
2023-04-05T15:09:21.667Z,909.40
2023-04-05T15:11:48.454Z,915.47
2023-04-05T15:14:24.914Z,915.67
2023-04-05T15:16:57.864Z,905.65
2023-04-05T15:19:24.844Z,908.55
2023-04-05T15:21:51.582Z,906.83
2023-04-05T15:24:18.255Z,909.97
2023-04-05T15:26:44.974Z,909.78
2023-04-05T15:29:11.671Z,905.20
2023-04-05T15:31:39.378Z,889.33
2023-04-05T15:34:08.248Z,893.25
2023-04-05T15:36:36.025Z,896.93
2023-04-05T15:39:04.966Z,890.80
2023-04-05T15:41:34.472Z,891.85
2023-04-05T15:44:01.594Z,883.58
2023-04-05T15:46:29.149Z,893.17
2023-04-05T15:48:56.223Z,890.13
2023-04-05T15:51:23.129Z,894.08
2023-04-05T15:53:50.112Z,896.83
2023-04-05T15:56:16.875Z,908.47
2023-04-05T15:58:43.827Z,897.55
2023-04-05T16:01:10.757Z,897.80
2023-04-05T16:03:37.772Z,898.38
2023-04-05T16:06:04.644Z,890.20
2023-04-05T16:08:31.432Z,894.28
2023-04-05T16:10:58.175Z,875.53
2023-04-05T16:13:24.958Z,868.50
2023-04-05T16:15:51.865Z,861.60
2023-04-05T16:18:21.210Z,865.70
2023-04-05T16:20:48.224Z,861.80
2023-04-05T16:23:15.546Z,865.42
2023-04-05T16:25:42.510Z,851.28
2023-04-05T16:28:09.449Z,854.00
2023-04-05T16:30:36.892Z,863.92
2023-04-05T16:33:03.751Z,845.40
2023-04-05T16:35:31.329Z,861.17
2023-04-05T16:37:58.491Z,851.80
2023-04-05T16:40:25.281Z,858.00
2023-04-05T16:42:51.948Z,848.25
2023-04-05T16:45:18.752Z,848.35
2023-04-05T16:47:45.555Z,834.65
2023-04-05T16:50:12.318Z,837.90
2023-04-05T16:52:39.109Z,833.33
2023-04-05T16:55:06.418Z,838.25
2023-04-05T16:57:33.272Z,837.72
2023-04-05T17:00:00.248Z,841.20
2023-04-05T17:02:27.230Z,843.50
2023-04-05T17:04:54.146Z,838.15
2023-04-05T17:07:21.096Z,837.70
2023-04-05T17:09:47.938Z,837.60
2023-04-05T17:12:14.774Z,821.05
2023-04-05T17:14:41.425Z,827.85
2023-04-05T17:17:08.150Z,825.37
2023-04-05T17:19:34.817Z,829.92
2023-04-05T17:22:01.783Z,825.35
2023-04-05T17:24:34.542Z,815.53
2023-04-05T17:27:01.526Z,811.50
2023-04-05T17:29:28.348Z,813.42
2023-04-05T17:31:55.230Z,802.72
2023-04-05T17:34:21.878Z,796.00
2023-04-05T17:36:48.654Z,802.60
2023-04-05T17:39:18.308Z,798.80
2023-04-05T17:41:46.415Z,788.20
2023-04-05T17:44:13.300Z,788.22
2023-04-05T17:46:44.604Z,787.13
2023-04-05T17:49:15.303Z,772.83
2023-04-05T17:51:42.140Z,771.03
2023-04-05T17:54:08.838Z,768.40
2023-04-05T17:56:36.016Z,759.53
2023-04-05T17:59:04.132Z,743.15
2023-04-05T18:01:31.363Z,737.20
2023-04-05T18:03:59.315Z,732.55
2023-04-05T18:06:26.309Z,726.33
2023-04-05T18:08:53.240Z,722.90
2023-04-05T18:11:20.132Z,727.38
2023-04-05T18:13:48.087Z,713.85
2023-04-05T18:16:14.861Z,705.15
2023-04-05T18:18:41.828Z,712.90
2023-04-05T18:21:08.520Z,699.92
2023-04-05T18:23:35.235Z,699.20
2023-04-05T18:26:07.349Z,694.20
2023-04-05T18:28:34.077Z,701.67
2023-04-05T18:31:00.775Z,689.42
2023-04-05T18:33:27.466Z,684.53
2023-04-05T18:35:54.222Z,683.35
2023-04-05T18:38:21.771Z,683.85
2023-04-05T18:40:48.679Z,685.65
2023-04-05T18:43:15.453Z,668.28
2023-04-05T18:45:42.305Z,673.15
2023-04-05T18:48:09.015Z,667.60
2023-04-05T18:50:36.294Z,674.33
2023-04-05T18:53:03.172Z,668.90
2023-04-05T18:55:29.839Z,673.63
2023-04-05T18:57:57.092Z,673.28
2023-04-05T19:00:24.033Z,677.17
2023-04-05T19:02:51.261Z,667.47
2023-04-05T19:05:18.208Z,678.17
2023-04-05T19:07:44.973Z,665.83
2023-04-05T19:10:11.907Z,677.40
2023-04-05T19:12:38.689Z,664.63
2023-04-05T19:15:06.175Z,667.03
2023-04-05T19:17:32.882Z,659.90
2023-04-05T19:19:59.605Z,660.78
2023-04-05T19:22:26.252Z,657.25
2023-04-05T19:24:52.920Z,654.33
2023-04-05T19:27:19.591Z,652.92
2023-04-05T19:29:46.424Z,658.63
2023-04-05T19:32:13.766Z,648.03
2023-04-05T19:34:40.496Z,659.60
2023-04-05T19:37:07.210Z,657.05
2023-04-05T19:39:36.549Z,660.75
2023-04-05T19:42:04.497Z,658.35
2023-04-05T19:44:58.346Z,655.05
2023-04-05T19:47:25.936Z,656.13
2023-04-05T19:49:55.910Z,670.00
2023-04-05T19:52:47.201Z,664.80
2023-04-05T19:55:37.844Z,659.70
2023-04-05T19:58:09.628Z,658.90
2023-04-05T20:00:44.541Z,663.13
2023-04-05T20:03:33.833Z,673.03
2023-04-05T20:06:05.080Z,676.42
2023-04-05T20:08:35.022Z,664.25
2023-04-05T20:11:09.566Z,657.80
2023-04-05T20:13:43.891Z,663.03
2023-04-05T20:16:12.400Z,659.08
2023-04-05T20:18:39.497Z,654.53
2023-04-05T20:21:06.955Z,655.47
2023-04-05T20:23:35.820Z,651.50
2023-04-05T20:26:04.924Z,642.67
2023-04-05T20:28:40.280Z,647.70
2023-04-05T20:31:25.484Z,644.90
2023-04-05T20:34:16.751Z,634.08
2023-04-05T20:36:43.412Z,633.47
2023-04-05T20:39:10.320Z,631.45
2023-04-05T20:41:37.134Z,635.15
2023-04-05T20:44:03.830Z,626.75
2023-04-05T20:46:30.617Z,623.83
2023-04-05T20:48:57.977Z,630.42
2023-04-05T20:51:24.873Z,621.10
2023-04-05T20:53:51.755Z,601.78
2023-04-05T20:56:19.103Z,613.23
2023-04-05T20:58:45.770Z,605.73
2023-04-05T21:01:12.470Z,607.28
2023-04-05T21:03:41.160Z,601.97
2023-04-05T21:06:09.448Z,600.90
2023-04-05T21:08:37.547Z,595.53
2023-04-05T21:11:04.879Z,588.60
2023-04-05T21:13:32.385Z,589.23
2023-04-05T21:15:59.392Z,593.08
2023-04-05T21:18:26.201Z,590.97
2023-04-05T21:20:53.745Z,591.75
2023-04-05T21:23:22.616Z,587.15
2023-04-05T21:25:49.820Z,586.83
2023-04-05T21:28:16.572Z,587.53
2023-04-05T21:30:43.711Z,591.38
2023-04-05T21:33:11.002Z,588.03
2023-04-05T21:35:38.039Z,591.13
2023-04-05T21:38:05.031Z,591.55
2023-04-05T21:40:31.949Z,592.33
2023-04-05T21:42:59.100Z,592.15
2023-04-05T21:45:26.170Z,594.35
2023-04-05T21:47:53.096Z,582.15
2023-04-05T21:50:20.455Z,583.78
2023-04-05T21:52:47.240Z,590.97
2023-04-05T21:55:14.114Z,603.53
2023-04-05T21:57:40.809Z,590.03
2023-04-05T22:00:11.682Z,596.78
2023-04-05T22:02:39.329Z,590.90
2023-04-05T22:05:07.799Z,594.00
2023-04-05T22:07:35.322Z,587.70
2023-04-05T22:10:02.685Z,580.92
2023-04-05T22:12:29.585Z,589.65
2023-04-05T22:14:56.520Z,580.97
2023-04-05T22:17:23.292Z,590.67
2023-04-05T22:19:49.963Z,589.28
2023-04-05T22:22:17.095Z,601.00
2023-04-05T22:24:44.259Z,582.58
2023-04-05T22:27:12.052Z,589.28
2023-04-05T22:29:39.155Z,593.65
2023-04-05T22:32:06.454Z,590.17
2023-04-05T22:34:33.280Z,587.20
2023-04-05T22:37:00.483Z,587.58
2023-04-05T22:39:27.801Z,590.28
2023-04-05T22:41:54.787Z,585.90
2023-04-05T22:44:22.022Z,589.30
2023-04-05T22:46:48.774Z,596.22
2023-04-05T22:49:15.457Z,597.40
2023-04-05T22:51:42.181Z,595.88
2023-04-05T22:54:08.870Z,601.47
2023-04-05T22:56:35.909Z,590.08
2023-04-05T22:59:02.619Z,599.55
